createdAt,value
2017-03-17T00:00:26.673Z,1011.15
2017-03-17T00:01:36.967Z,1011.1
2017-03-17T00:02:47.271Z,1011.08
2017-03-17T00:03:57.568Z,1011.08
2017-03-17T00:05:08.212Z,1011.06
2017-03-17T00:06:18.705Z,1011.02
2017-03-17T00:07:29.033Z,1011
2017-03-17T00:08:39.339Z,1011
2017-03-17T00:09:49.648Z,1010.97
2017-03-17T00:11:00.260Z,1010.92
2017-03-17T00:12:10.570Z,1010.9
2017-03-17T00:13:20.883Z,1010.85
2017-03-17T00:14:31.182Z,1010.85
2017-03-17T00:15:41.489Z,1010.82
2017-03-17T00:16:52.084Z,1010.8
2017-03-17T00:18:02.384Z,1010.75
2017-03-17T00:19:12.676Z,1010.71
2017-03-17T00:20:22.986Z,1010.69
2017-03-17T00:21:33.287Z,1010.67
2017-03-17T00:22:43.911Z,1010.65
2017-03-17T00:23:53.898Z,1010.69
2017-03-17T00:25:04.202Z,1010.68
2017-03-17T00:26:14.522Z,1010.66
2017-03-17T00:27:24.852Z,1010.65
2017-03-17T00:28:35.143Z,1010.57
2017-03-17T00:29:45.441Z,1010.56
2017-03-17T00:30:55.729Z,1010.57
2017-03-17T00:32:06.031Z,1010.51
2017-03-17T00:33:16.336Z,1010.48
2017-03-17T00:34:26.624Z,1010.47
2017-03-17T00:35:36.612Z,1010.39
2017-03-17T00:36:46.912Z,1010.41
2017-03-17T00:37:56.894Z,1010.3
2017-03-17T00:39:07.198Z,1010.25
2017-03-17T00:40:17.809Z,1010.3
2017-03-17T00:41:28.106Z,1010.3
2017-03-17T00:42:38.407Z,1010.25
2017-03-17T00:43:48.702Z,1010.22
2017-03-17T00:44:59.003Z,1010.2
2017-03-17T00:46:09.294Z,1010.16
2017-03-17T00:47:19.411Z,1010.17
2017-03-17T00:48:29.712Z,1010.16
2017-03-17T00:49:40.008Z,1010.15
2017-03-17T00:50:50.324Z,1010.14
2017-03-17T00:52:00.602Z,1010.13
2017-03-17T00:53:10.586Z,1010.12
2017-03-17T00:54:20.893Z,1010.08
2017-03-17T00:55:31.191Z,1010.01
2017-03-17T00:56:41.185Z,1009.99
2017-03-17T00:57:51.780Z,1009.9
2017-03-17T00:59:02.074Z,1009.81
2017-03-17T01:00:12.055Z,1009.77
2017-03-17T01:01:22.360Z,1009.71
2017-03-17T01:02:32.718Z,1009.71
2017-03-17T01:03:42.389Z,1009.7
2017-03-17T01:04:52.689Z,1009.69
2017-03-17T01:06:02.992Z,1009.66
2017-03-17T01:07:13.310Z,1009.67
2017-03-17T01:08:23.613Z,1009.69
2017-03-17T01:09:33.892Z,1009.65
2017-03-17T01:10:44.206Z,1009.61
2017-03-17T01:11:54.503Z,1009.6
2017-03-17T01:13:04.794Z,1009.58
2017-03-17T01:14:15.079Z,1009.53
2017-03-17T01:15:25.687Z,1009.51
2017-03-17T01:16:36.002Z,1009.45
2017-03-17T01:17:46.303Z,1009.47
2017-03-17T01:18:56.292Z,1009.52
2017-03-17T01:20:06.582Z,1009.5
2017-03-17T01:21:16.864Z,1009.49
2017-03-17T01:22:27.159Z,1009.43
2017-03-17T01:23:37.456Z,1009.37
2017-03-17T01:24:47.754Z,1009.34
2017-03-17T01:25:58.058Z,1009.29
2017-03-17T01:27:08.660Z,1009.3
2017-03-17T01:28:18.955Z,1009.22
2017-03-17T01:29:29.265Z,1009.17
2017-03-17T01:30:39.565Z,1009.14
2017-03-17T01:31:49.546Z,1009.1
2017-03-17T01:33:00.092Z,1009.01
2017-03-17T01:34:10.075Z,1008.93
2017-03-17T01:35:20.365Z,1008.86
2017-03-17T01:36:30.347Z,1008.86
2017-03-17T01:37:40.643Z,1008.83
2017-03-17T01:38:51.290Z,1008.78
2017-03-17T01:40:01.281Z,1008.74
2017-03-17T01:41:11.572Z,1008.73
2017-03-17T01:42:21.863Z,1008.69
2017-03-17T01:43:32.159Z,1008.67
2017-03-17T01:44:42.756Z,1008.68
2017-03-17T01:45:53.064Z,1008.65
2017-03-17T01:47:03.054Z,1008.63
2017-03-17T01:48:13.344Z,1008.63
2017-03-17T01:49:23.339Z,1008.6
2017-03-17T01:50:33.930Z,1008.57
2017-03-17T01:51:43.913Z,1008.55
2017-03-17T01:52:53.895Z,1008.57
2017-03-17T01:54:03.876Z,1008.54
2017-03-17T01:55:14.174Z,1008.52
2017-03-17T01:56:24.471Z,1008.53
2017-03-17T01:57:34.762Z,1008.53
2017-03-17T01:58:44.754Z,1008.52
2017-03-17T01:59:55.060Z,1008.5
2017-03-17T02:01:05.349Z,1008.52
2017-03-17T02:02:15.624Z,1008.52
2017-03-17T02:03:25.914Z,1008.49
2017-03-17T02:04:36.247Z,1008.49
2017-03-17T02:05:46.541Z,1008.43
2017-03-17T02:06:56.212Z,1008.41
2017-03-17T02:08:06.490Z,1008.41
2017-03-17T02:09:16.785Z,1008.43
2017-03-17T02:10:27.079Z,1008.38
2017-03-17T02:11:37.373Z,1008.35
2017-03-17T02:12:47.684Z,1008.37
2017-03-17T02:13:57.978Z,1008.35
2017-03-17T02:15:07.959Z,1008.37
2017-03-17T02:16:18.254Z,1008.32
2017-03-17T02:17:27.924Z,1008.29
2017-03-17T02:18:37.588Z,1008.26
2017-03-17T02:19:48.196Z,1008.24
2017-03-17T02:20:58.525Z,1008.23
2017-03-17T02:22:08.842Z,1008.17
2017-03-17T02:23:18.820Z,1008.17
2017-03-17T02:24:29.114Z,1008.19
2017-03-17T02:25:39.713Z,1008.18
2017-03-17T02:26:49.709Z,1008.18
2017-03-17T02:27:59.997Z,1008.18
2017-03-17T02:29:10.298Z,1008.13
2017-03-17T02:30:20.597Z,1008.15
2017-03-17T02:31:30.880Z,1008.12
2017-03-17T02:32:41.175Z,1008.06
2017-03-17T02:33:51.207Z,1008.08
2017-03-17T02:35:01.504Z,1008.06
2017-03-17T02:36:11.489Z,1008.04
2017-03-17T02:37:21.768Z,1008.05
2017-03-17T02:38:32.062Z,1008
2017-03-17T02:39:42.362Z,1007.96
2017-03-17T02:40:52.352Z,1007.97
2017-03-17T02:42:02.653Z,1007.94
2017-03-17T02:43:13.252Z,1007.94
2017-03-17T02:44:23.567Z,1007.92
2017-03-17T02:45:33.866Z,1007.88
2017-03-17T02:46:43.539Z,1007.9
2017-03-17T02:47:53.831Z,1007.88
2017-03-17T02:49:04.427Z,1007.89
2017-03-17T02:50:14.743Z,1007.88
2017-03-17T02:51:25.049Z,1007.87
2017-03-17T02:52:35.345Z,1007.81
2017-03-17T02:53:45.645Z,1007.82
2017-03-17T02:54:56.254Z,1007.81
2017-03-17T02:56:06.247Z,1007.77
2017-03-17T02:57:16.540Z,1007.78
2017-03-17T02:58:26.836Z,1007.81
2017-03-17T02:59:37.175Z,1007.72
2017-03-17T03:00:47.773Z,1007.72
2017-03-17T03:01:58.070Z,1007.61
2017-03-17T03:03:08.369Z,1007.58
2017-03-17T03:04:18.673Z,1007.6
2017-03-17T03:05:28.990Z,1007.54
2017-03-17T03:06:39.584Z,1007.5
2017-03-17T03:07:49.871Z,1007.51
2017-03-17T03:09:00.183Z,1007.48
2017-03-17T03:10:10.484Z,1007.51
2017-03-17T03:11:20.781Z,1007.48
2017-03-17T03:12:31.387Z,1007.47
2017-03-17T03:13:41.698Z,1007.44
2017-03-17T03:14:51.681Z,1007.4
2017-03-17T03:16:01.978Z,1007.47
2017-03-17T03:17:11.965Z,1007.41
2017-03-17T03:18:22.567Z,1007.42
2017-03-17T03:19:32.884Z,1007.38
2017-03-17T03:20:42.861Z,1007.35
2017-03-17T03:21:53.151Z,1007.33
2017-03-17T03:23:03.145Z,1007.32
2017-03-17T03:24:13.752Z,1007.31
2017-03-17T03:25:24.061Z,1007.27
2017-03-17T03:26:34.363Z,1007.29
2017-03-17T03:27:44.349Z,1007.31
2017-03-17T03:28:54.644Z,1007.27
2017-03-17T03:30:05.271Z,1007.31
2017-03-17T03:31:15.593Z,1007.31
2017-03-17T03:32:25.881Z,1007.28
2017-03-17T03:33:35.866Z,1007.22
2017-03-17T03:34:46.168Z,1007.25
2017-03-17T03:35:56.452Z,1007.2
2017-03-17T03:37:06.459Z,1007.2
2017-03-17T03:38:16.750Z,1007.2
2017-03-17T03:39:27.057Z,1007.17
2017-03-17T03:40:37.354Z,1007.18
2017-03-17T03:41:47.949Z,1007.16
2017-03-17T03:42:57.937Z,1007.09
2017-03-17T03:44:08.254Z,1007.09
2017-03-17T03:45:18.557Z,1007.02
2017-03-17T03:46:28.855Z,1007.08
2017-03-17T03:47:39.450Z,1007.02
2017-03-17T03:48:49.766Z,1006.99
2017-03-17T03:50:00.065Z,1007.01
2017-03-17T03:51:10.371Z,1006.98
2017-03-17T03:52:20.346Z,1006.97
2017-03-17T03:53:30.947Z,1006.87
2017-03-17T03:54:41.250Z,1006.92
2017-03-17T03:55:51.545Z,1006.94
2017-03-17T03:57:01.534Z,1006.89
2017-03-17T03:58:11.831Z,1006.89
2017-03-17T03:59:22.113Z,1006.91
2017-03-17T04:00:32.100Z,1006.86
2017-03-17T04:01:42.087Z,1006.85
2017-03-17T04:02:52.378Z,1006.86
2017-03-17T04:04:02.685Z,1006.82
2017-03-17T04:05:12.983Z,1006.76
2017-03-17T04:06:22.963Z,1006.76
2017-03-17T04:07:33.263Z,1006.73
2017-03-17T04:08:43.572Z,1006.7
2017-03-17T04:09:53.875Z,1006.65
2017-03-17T04:11:04.170Z,1006.65
2017-03-17T04:12:14.471Z,1006.65
2017-03-17T04:13:24.776Z,1006.6
2017-03-17T04:14:35.079Z,1006.59
2017-03-17T04:15:45.411Z,1006.62
2017-03-17T04:16:55.692Z,1006.61
2017-03-17T04:18:05.987Z,1006.49
2017-03-17T04:19:15.971Z,1006.49
2017-03-17T04:20:26.284Z,1006.5
2017-03-17T04:21:36.589Z,1006.54
2017-03-17T04:22:47.185Z,1006.52
2017-03-17T04:23:56.858Z,1006.48
2017-03-17T04:25:07.165Z,1006.51
2017-03-17T04:26:16.835Z,1006.54
2017-03-17T04:27:26.819Z,1006.48
2017-03-17T04:28:37.402Z,1006.45
2017-03-17T04:29:47.402Z,1006.42
2017-03-17T04:30:57.693Z,1006.42
2017-03-17T04:32:07.987Z,1006.39
2017-03-17T04:33:18.274Z,1006.41
2017-03-17T04:34:28.880Z,1006.4
2017-03-17T04:35:39.175Z,1006.39
2017-03-17T04:36:49.472Z,1006.41
2017-03-17T04:37:59.777Z,1006.4
2017-03-17T04:39:10.080Z,1006.4
2017-03-17T04:40:20.378Z,1006.37
2017-03-17T04:41:30.679Z,1006.37
2017-03-17T04:42:40.985Z,1006.38
2017-03-17T04:43:51.325Z,1006.35
2017-03-17T04:45:01.626Z,1006.35
2017-03-17T04:46:11.910Z,1006.3
2017-03-17T04:47:21.885Z,1006.35
2017-03-17T04:48:32.177Z,1006.34
2017-03-17T04:49:42.475Z,1006.24
2017-03-17T04:50:52.774Z,1006.26
2017-03-17T04:52:03.372Z,1006.21
2017-03-17T04:53:13.356Z,1006.23
2017-03-17T04:54:23.658Z,1006.19
2017-03-17T04:55:33.962Z,1006.18
2017-03-17T04:56:44.282Z,1006.2
2017-03-17T04:57:54.557Z,1006.17
2017-03-17T04:59:04.529Z,1006.16
2017-03-17T05:00:14.841Z,1006.14
2017-03-17T05:01:24.822Z,1006.15
2017-03-17T05:02:34.806Z,1006.19
2017-03-17T05:03:45.416Z,1006.2
2017-03-17T05:04:55.421Z,1006.18
2017-03-17T05:06:05.400Z,1006.24
2017-03-17T05:07:15.687Z,1006.23
2017-03-17T05:08:25.984Z,1006.26
2017-03-17T05:09:36.589Z,1006.27
2017-03-17T05:10:46.890Z,1006.26
2017-03-17T05:11:57.187Z,1006.28
2017-03-17T05:13:07.472Z,1006.24
2017-03-17T05:14:17.757Z,1006.26
2017-03-17T05:15:28.410Z,1006.19
2017-03-17T05:16:38.708Z,1006.27
2017-03-17T05:17:49.010Z,1006.25
2017-03-17T05:18:59.310Z,1006.28
2017-03-17T05:20:09.617Z,1006.27
2017-03-17T05:21:19.903Z,1006.28
2017-03-17T05:22:29.889Z,1006.23
2017-03-17T05:23:40.197Z,1006.23
2017-03-17T05:24:50.185Z,1006.19
2017-03-17T05:26:00.493Z,1006.2
2017-03-17T05:27:11.095Z,1006.24
2017-03-17T05:28:21.079Z,1006.17
2017-03-17T05:29:31.376Z,1006.17
2017-03-17T05:30:41.704Z,1006.19
2017-03-17T05:31:51.686Z,1006.22
2017-03-17T05:33:01.964Z,1006.23
2017-03-17T05:34:12.257Z,1006.18
2017-03-17T05:35:22.263Z,1006.2
2017-03-17T05:36:32.577Z,1006.18
2017-03-17T05:37:42.892Z,1006.18
2017-03-17T05:38:53.482Z,1006.19
2017-03-17T05:40:03.787Z,1006.16
2017-03-17T05:41:14.122Z,1006.2
2017-03-17T05:42:24.427Z,1006.17
2017-03-17T05:43:34.733Z,1006.16
2017-03-17T05:44:45.373Z,1006.18
2017-03-17T05:45:55.677Z,1006.14
2017-03-17T05:47:05.969Z,1006.11
2017-03-17T05:48:15.955Z,1006.11
2017-03-17T05:49:26.266Z,1006.13
2017-03-17T05:50:36.868Z,1006.1
2017-03-17T05:51:46.862Z,1006.15
2017-03-17T05:52:57.155Z,1006.09
2017-03-17T05:54:07.482Z,1006.06
2017-03-17T05:55:17.478Z,1006.02
2017-03-17T05:56:28.092Z,1005.98
2017-03-17T05:57:38.535Z,1006.01
2017-03-17T05:58:48.873Z,1005.96
2017-03-17T05:59:59.203Z,1005.97
2017-03-17T06:01:09.204Z,1005.92
2017-03-17T06:02:19.811Z,1005.95
2017-03-17T06:03:30.109Z,1005.95
2017-03-17T06:04:40.422Z,1005.96
2017-03-17T06:05:50.717Z,1005.94
2017-03-17T06:07:01.014Z,1005.94
2017-03-17T06:08:11.617Z,1005.93
2017-03-17T06:09:21.911Z,1005.92
2017-03-17T06:10:32.208Z,1005.88
2017-03-17T06:11:42.512Z,1005.87
2017-03-17T06:12:52.819Z,1005.85
2017-03-17T06:14:03.415Z,1005.89
2017-03-17T06:15:13.402Z,1005.83
2017-03-17T06:16:23.700Z,1005.85
2017-03-17T06:17:33.994Z,1005.83
2017-03-17T06:18:43.681Z,1005.95
2017-03-17T06:19:53.978Z,1005.92
2017-03-17T06:21:04.292Z,1005.77
2017-03-17T06:22:14.605Z,1005.78
2017-03-17T06:23:24.929Z,1005.84
2017-03-17T06:24:35.241Z,1005.82
2017-03-17T06:25:45.849Z,1005.88
2017-03-17T06:26:56.161Z,1005.9
2017-03-17T06:28:06.450Z,1005.85
2017-03-17T06:29:16.453Z,1005.87
2017-03-17T06:30:26.772Z,1005.86
2017-03-17T06:31:37.370Z,1005.91
2017-03-17T06:32:47.831Z,1005.93
2017-03-17T06:33:57.834Z,1005.94
2017-03-17T06:35:07.821Z,1005.87
2017-03-17T06:36:18.118Z,1005.9
2017-03-17T06:37:28.714Z,1005.9
2017-03-17T06:38:39.070Z,1005.88
2017-03-17T06:39:49.395Z,1005.9
2017-03-17T06:40:59.387Z,1005.87
2017-03-17T06:42:09.390Z,1005.91
2017-03-17T06:43:20.019Z,1005.92
2017-03-17T06:44:30.022Z,1005.95
2017-03-17T06:45:40.328Z,1005.92
2017-03-17T06:46:50.340Z,1005.92
2017-03-17T06:48:00.333Z,1005.95
2017-03-17T06:49:10.318Z,1005.93
2017-03-17T06:50:20.829Z,1005.92
2017-03-17T06:51:31.184Z,1005.96
2017-03-17T06:52:41.479Z,1005.97
2017-03-17T06:53:51.799Z,1006.01
2017-03-17T06:55:02.413Z,1006.06
2017-03-17T06:56:12.396Z,1006.01
2017-03-17T06:57:22.706Z,1006
2017-03-17T06:58:32.668Z,1006.08
2017-03-17T06:59:42.967Z,1006.08
2017-03-17T07:00:53.584Z,1006.08
2017-03-17T07:02:03.875Z,1006.03
2017-03-17T07:03:13.869Z,1006.03
2017-03-17T07:04:24.171Z,1006.06
2017-03-17T07:05:34.528Z,1006.07
2017-03-17T07:06:45.149Z,1005.98
2017-03-17T07:07:55.441Z,1006.02
2017-03-17T07:09:05.757Z,1006
2017-03-17T07:10:16.067Z,1005.97
2017-03-17T07:11:26.378Z,1005.97
2017-03-17T07:12:36.980Z,1005.99
2017-03-17T07:13:47.309Z,1005.97
2017-03-17T07:14:57.636Z,1005.95
2017-03-17T07:16:07.942Z,1005.97
2017-03-17T07:17:17.936Z,1006.01
2017-03-17T07:18:28.570Z,1006
2017-03-17T07:19:38.594Z,1006.03
2017-03-17T07:20:48.959Z,1006.07
2017-03-17T07:21:59.286Z,1006.09
2017-03-17T07:23:09.327Z,1006.09
2017-03-17T07:24:19.955Z,1006.11
2017-03-17T07:25:30.262Z,1006.1
2017-03-17T07:26:40.262Z,1006.13
2017-03-17T07:27:50.563Z,1006.14
2017-03-17T07:29:00.896Z,1006.1
2017-03-17T07:30:11.509Z,1006.08
2017-03-17T07:31:21.821Z,1006.11
2017-03-17T07:32:32.111Z,1006.11
2017-03-17T07:33:42.417Z,1006.11
2017-03-17T07:34:52.728Z,1006.12
2017-03-17T07:36:03.328Z,1006.12
2017-03-17T07:37:13.628Z,1006.08
2017-03-17T07:38:23.987Z,1006.1
2017-03-17T07:41:17.856Z,1006.16
2017-03-17T07:42:28.169Z,1006.16
2017-03-17T07:43:38.500Z,1006.14
2017-03-17T07:44:48.509Z,1006.11
2017-03-17T07:45:58.839Z,1006.09
2017-03-17T07:47:08.806Z,1006.07
2017-03-17T07:48:18.822Z,1006.05
2017-03-17T07:49:29.168Z,1006.01
2017-03-17T07:50:39.592Z,1005.97
2017-03-17T07:51:49.894Z,1005.93
2017-03-17T07:53:00.503Z,1005.92
2017-03-17T07:54:10.557Z,1005.91
2017-03-17T07:55:20.569Z,1005.85
2017-03-17T07:56:30.572Z,1005.87
2017-03-17T07:57:40.874Z,1005.8
2017-03-17T07:58:51.186Z,1005.76
2017-03-17T08:00:01.184Z,1005.76
2017-03-17T08:01:11.197Z,1005.81
2017-03-17T08:02:21.186Z,1005.8
2017-03-17T08:03:31.262Z,1005.77
2017-03-17T08:04:41.561Z,1005.73
2017-03-17T08:05:51.607Z,1005.71
2017-03-17T08:07:01.924Z,1005.66
2017-03-17T08:08:11.934Z,1005.69
2017-03-17T08:09:22.260Z,1005.65
2017-03-17T08:10:32.874Z,1005.65
2017-03-17T08:11:42.913Z,1005.69
2017-03-17T08:12:52.916Z,1005.66
2017-03-17T08:14:03.276Z,1005.67
2017-03-17T08:15:13.614Z,1005.67
2017-03-17T08:16:23.621Z,1005.66
2017-03-17T08:17:33.933Z,1005.65
2017-03-17T08:18:44.269Z,1005.7
2017-03-17T08:19:54.595Z,1005.69
2017-03-17T08:21:04.908Z,1005.76
2017-03-17T08:22:15.545Z,1005.79
2017-03-17T08:23:25.850Z,1005.77
2017-03-17T08:24:35.854Z,1005.78
2017-03-17T08:25:46.173Z,1005.8
2017-03-17T08:26:56.480Z,1005.82
2017-03-17T08:28:07.111Z,1005.83
2017-03-17T08:29:17.433Z,1005.82
2017-03-17T08:30:27.758Z,1005.82
2017-03-17T08:31:38.074Z,1005.84
2017-03-17T08:32:47.753Z,1005.8
2017-03-17T08:33:58.364Z,1005.78
2017-03-17T08:35:08.367Z,1005.77
2017-03-17T08:36:18.667Z,1005.68
2017-03-17T08:37:28.951Z,1005.66
2017-03-17T08:38:39.264Z,1005.69
2017-03-17T08:39:49.626Z,1005.72
2017-03-17T08:41:00.102Z,1005.76
2017-03-17T08:42:10.419Z,1005.76
2017-03-17T08:43:20.729Z,1005.77
2017-03-17T08:44:31.050Z,1005.79
2017-03-17T08:45:41.738Z,1005.8
2017-03-17T08:46:52.067Z,1005.72
2017-03-17T08:48:01.745Z,1005.72
2017-03-17T08:49:12.067Z,1005.67
2017-03-17T08:50:22.393Z,1005.7
2017-03-17T08:51:33.046Z,1005.66
2017-03-17T08:52:43.092Z,1005.68
2017-03-17T08:53:53.095Z,1005.66
2017-03-17T08:55:03.432Z,1005.69
2017-03-17T08:56:13.764Z,1005.72
2017-03-17T08:57:24.400Z,1005.68
2017-03-17T08:58:34.150Z,1005.7
2017-03-17T08:59:44.487Z,1005.69
2017-03-17T09:00:54.533Z,1005.68
2017-03-17T09:02:04.870Z,1005.67
2017-03-17T09:03:15.230Z,1005.71
2017-03-17T09:04:25.548Z,1005.74
2017-03-17T09:05:35.560Z,1005.74
2017-03-17T09:06:45.566Z,1005.78
2017-03-17T09:07:55.888Z,1005.78
2017-03-17T09:09:06.218Z,1005.71
2017-03-17T09:10:16.224Z,1005.7
2017-03-17T09:11:26.224Z,1005.74
2017-03-17T09:12:36.584Z,1005.77
2017-03-17T09:13:46.595Z,1005.78
2017-03-17T09:14:57.206Z,1005.82
2017-03-17T09:16:07.520Z,1005.78
2017-03-17T09:17:17.820Z,1005.79
2017-03-17T09:18:28.128Z,1005.81
2017-03-17T09:19:37.830Z,1005.77
2017-03-17T09:20:48.439Z,1005.8
2017-03-17T09:21:58.758Z,1005.81
2017-03-17T09:23:09.078Z,1005.88
2017-03-17T09:24:19.406Z,1005.88
2017-03-17T09:25:29.718Z,1005.89
2017-03-17T09:26:40.362Z,1005.88
2017-03-17T09:27:50.731Z,1005.97
2017-03-17T09:29:01.267Z,1005.98
2017-03-17T09:30:11.270Z,1005.98
2017-03-17T09:31:21.280Z,1005.98
2017-03-17T09:32:31.893Z,1006
2017-03-17T09:33:42.210Z,1006.03
2017-03-17T09:34:52.552Z,1006.06
2017-03-17T09:36:02.873Z,1006.04
2017-03-17T09:37:12.864Z,1006.03
2017-03-17T09:38:23.226Z,1006
2017-03-17T09:39:33.536Z,1006.06
2017-03-17T09:40:43.891Z,1006.02
2017-03-17T09:41:54.206Z,1006.05
2017-03-17T09:43:04.585Z,1006.12
2017-03-17T09:44:15.213Z,1006.03
2017-03-17T09:45:25.216Z,1006.08
2017-03-17T09:46:35.546Z,1006.05
2017-03-17T09:47:45.868Z,1006.1
2017-03-17T09:48:56.187Z,1006.14
2017-03-17T09:50:06.901Z,1006.12
2017-03-17T09:51:17.220Z,1006.08
2017-03-17T09:52:27.692Z,1006.09
2017-03-17T09:53:37.706Z,1006.12
2017-03-17T09:54:48.064Z,1006.05
2017-03-17T09:55:58.745Z,1006.06
2017-03-17T09:57:09.065Z,1006.04
2017-03-17T09:58:19.443Z,1006.06
2017-03-17T09:59:29.769Z,1006.04
2017-03-17T10:00:40.090Z,1006.03
2017-03-17T10:01:50.714Z,1006.02
2017-03-17T10:03:00.701Z,1006.02
2017-03-17T10:04:11.040Z,1005.99
2017-03-17T10:05:21.104Z,1005.99
2017-03-17T10:06:31.467Z,1005.98
2017-03-17T10:07:41.773Z,1005.97
2017-03-17T10:08:51.791Z,1005.98
2017-03-17T10:10:02.153Z,1005.95
2017-03-17T10:11:12.298Z,1005.97
2017-03-17T10:12:22.630Z,1006
2017-03-17T10:13:33.235Z,1006.02
2017-03-17T10:14:43.157Z,1005.98
2017-03-17T10:15:53.497Z,1006.03
2017-03-17T10:17:03.806Z,1006.04
2017-03-17T10:18:14.131Z,1006
2017-03-17T10:19:24.455Z,1005.98
2017-03-17T10:20:34.480Z,1005.99
2017-03-17T10:21:44.467Z,1005.95
2017-03-17T10:22:54.807Z,1006.04
2017-03-17T10:24:05.418Z,1006.01
2017-03-17T10:25:15.126Z,1005.96
2017-03-17T10:26:25.443Z,1005.96
2017-03-17T10:27:35.765Z,1006.01
2017-03-17T10:28:46.080Z,1005.97
2017-03-17T10:29:56.415Z,1005.92
2017-03-17T10:31:06.404Z,1005.91
2017-03-17T10:32:16.723Z,1005.9
2017-03-17T10:33:26.432Z,1005.86
2017-03-17T10:34:36.921Z,1005.87
2017-03-17T10:35:47.223Z,1005.88
2017-03-17T10:36:57.847Z,1005.87
2017-03-17T10:38:08.172Z,1005.84
2017-03-17T10:39:18.183Z,1005.89
2017-03-17T10:40:28.501Z,1005.89
2017-03-17T10:41:38.880Z,1005.91
2017-03-17T10:42:49.493Z,1005.87
2017-03-17T10:43:59.791Z,1005.98
2017-03-17T10:45:10.133Z,1005.96
2017-03-17T10:46:20.445Z,1005.96
2017-03-17T10:47:30.546Z,1005.94
2017-03-17T10:48:40.887Z,1005.9
2017-03-17T10:49:50.967Z,1005.92
2017-03-17T10:51:00.963Z,1006.01
2017-03-17T10:52:11.257Z,1005.94
2017-03-17T10:53:21.587Z,1005.86
2017-03-17T10:54:31.940Z,1005.88
2017-03-17T10:55:41.936Z,1005.87
2017-03-17T10:56:52.253Z,1005.9
2017-03-17T10:58:02.553Z,1005.9
2017-03-17T10:59:12.910Z,1005.85
2017-03-17T11:00:23.546Z,1005.87
2017-03-17T11:01:33.217Z,1005.94
2017-03-17T11:02:43.211Z,1005.99
2017-03-17T11:03:53.526Z,1005.9
2017-03-17T11:05:03.826Z,1005.98
2017-03-17T11:06:14.118Z,1005.98
2017-03-17T11:07:24.453Z,1005.99
2017-03-17T11:08:34.446Z,1005.96
2017-03-17T11:09:44.765Z,1005.99
2017-03-17T11:10:55.088Z,1005.93
2017-03-17T11:12:05.687Z,1005.94
2017-03-17T11:13:15.989Z,1005.92
2017-03-17T11:14:25.994Z,1005.92
2017-03-17T11:15:36.301Z,1005.96
2017-03-17T11:16:46.630Z,1005.93
2017-03-17T11:17:57.226Z,1005.87
2017-03-17T11:19:07.232Z,1005.85
2017-03-17T11:20:17.564Z,1005.82
2017-03-17T11:21:27.884Z,1005.82
2017-03-17T11:22:38.447Z,1005.88
2017-03-17T11:23:49.073Z,1005.83
2017-03-17T11:24:59.396Z,1005.76
2017-03-17T11:26:09.702Z,1005.73
2017-03-17T11:27:19.907Z,1005.73
2017-03-17T11:28:30.227Z,1005.75
2017-03-17T11:29:40.861Z,1005.77
2017-03-17T11:30:51.196Z,1005.86
2017-03-17T11:32:01.219Z,1005.89
2017-03-17T11:33:11.550Z,1005.82
2017-03-17T11:34:21.545Z,1005.83
2017-03-17T11:35:32.154Z,1005.81
2017-03-17T11:36:42.470Z,1005.82
2017-03-17T11:37:52.780Z,1005.75
2017-03-17T11:39:02.793Z,1005.78
2017-03-17T11:40:13.120Z,1005.75
2017-03-17T11:41:23.682Z,1005.73
2017-03-17T11:42:34.010Z,1005.71
2017-03-17T11:43:43.709Z,1005.73
2017-03-17T11:44:54.070Z,1005.75
2017-03-17T11:46:04.387Z,1005.75
2017-03-17T11:47:14.937Z,1005.68
2017-03-17T11:48:25.284Z,1005.69
2017-03-17T11:49:35.682Z,1005.66
2017-03-17T11:50:46.105Z,1005.66
2017-03-17T11:51:56.425Z,1005.64
2017-03-17T11:53:06.358Z,1005.66
2017-03-17T11:54:16.665Z,1005.61
2017-03-17T11:55:26.665Z,1005.54
2017-03-17T11:56:37.001Z,1005.49
2017-03-17T11:57:47.292Z,1005.52
2017-03-17T11:58:57.929Z,1005.5
2017-03-17T12:00:08.236Z,1005.57
2017-03-17T12:01:18.560Z,1005.56
2017-03-17T12:02:28.575Z,1005.53
2017-03-17T12:03:38.883Z,1005.61
2017-03-17T12:04:49.450Z,1005.6
2017-03-17T12:05:59.458Z,1005.58
2017-03-17T12:07:09.129Z,1005.7
2017-03-17T12:08:19.465Z,1005.62
2017-03-17T12:09:29.798Z,1005.6
2017-03-17T12:10:40.123Z,1005.63
2017-03-17T12:11:50.434Z,1005.59
2017-03-17T12:13:00.475Z,1005.56
2017-03-17T12:14:10.784Z,1005.53
2017-03-17T12:15:21.088Z,1005.52
2017-03-17T12:16:31.698Z,1005.54
2017-03-17T12:17:41.699Z,1005.54
2017-03-17T12:18:52.017Z,1005.48
2017-03-17T12:20:02.353Z,1005.46
2017-03-17T12:21:12.665Z,1005.53
2017-03-17T12:22:23.339Z,1005.52
2017-03-17T12:23:33.660Z,1005.55
2017-03-17T12:24:43.997Z,1005.46
2017-03-17T12:25:54.313Z,1005.46
2017-03-17T12:27:04.316Z,1005.47
2017-03-17T12:28:14.882Z,1005.45
2017-03-17T12:29:25.210Z,1005.48
2017-03-17T12:30:35.510Z,1005.45
2017-03-17T12:31:45.815Z,1005.39
2017-03-17T12:32:56.160Z,1005.38
2017-03-17T12:34:06.724Z,1005.31
2017-03-17T12:35:17.067Z,1005.36
2017-03-17T12:36:27.071Z,1005.4
2017-03-17T12:37:37.064Z,1005.38
2017-03-17T12:38:47.368Z,1005.32
2017-03-17T12:39:57.984Z,1005.34
2017-03-17T12:41:08.303Z,1005.36
2017-03-17T12:42:18.655Z,1005.3
2017-03-17T12:43:28.968Z,1005.21
2017-03-17T12:44:39.318Z,1005.25
2017-03-17T12:45:49.922Z,1005.25
2017-03-17T12:47:00.262Z,1005.25
2017-03-17T12:48:10.265Z,1005.19
2017-03-17T12:49:20.582Z,1005.21
2017-03-17T12:50:30.278Z,1005.24
2017-03-17T12:51:40.591Z,1005.23
2017-03-17T12:52:50.252Z,1005.25
2017-03-17T12:54:00.589Z,1005.21
2017-03-17T12:55:10.288Z,1005.2
2017-03-17T12:56:20.352Z,1005.16
2017-03-17T12:57:30.654Z,1005.11
2017-03-17T12:58:40.719Z,1005.24
2017-03-17T12:59:51.056Z,1005.25
2017-03-17T13:01:01.388Z,1005.18
2017-03-17T13:02:11.702Z,1005.21
2017-03-17T13:03:22.338Z,1005.2
2017-03-17T13:04:32.648Z,1005.16
2017-03-17T13:05:42.965Z,1005.17
2017-03-17T13:06:53.269Z,1005.24
2017-03-17T13:08:03.271Z,1005.2
2017-03-17T13:09:13.581Z,1005.22
2017-03-17T13:10:23.913Z,1005.24
2017-03-17T13:11:34.338Z,1005.21
2017-03-17T13:12:44.336Z,1005.22
2017-03-17T13:13:54.344Z,1005.28
2017-03-17T13:15:04.985Z,1005.26
2017-03-17T13:16:15.301Z,1005.28
2017-03-17T13:17:25.615Z,1005.33
2017-03-17T13:18:35.960Z,1005.29
2017-03-17T13:19:46.293Z,1005.26
2017-03-17T13:20:56.922Z,1005.3
2017-03-17T13:22:06.949Z,1005.27
2017-03-17T13:23:16.960Z,1005.25
2017-03-17T13:24:26.988Z,1005.34
2017-03-17T13:25:37.309Z,1005.31
2017-03-17T13:26:47.619Z,1005.3
2017-03-17T13:27:57.951Z,1005.27
2017-03-17T13:29:07.955Z,1005.26
2017-03-17T13:30:18.288Z,1005.25
2017-03-17T13:31:28.612Z,1005.25
2017-03-17T13:32:39.183Z,1005.24
2017-03-17T13:33:49.499Z,1005.26
2017-03-17T13:34:59.225Z,1005.21
2017-03-17T13:36:09.238Z,1005.18
2017-03-17T13:37:19.554Z,1005.21
2017-03-17T13:38:30.112Z,1005.22
2017-03-17T13:39:40.453Z,1005.23
2017-03-17T13:40:50.784Z,1005.23
2017-03-17T13:42:00.779Z,1005.18
2017-03-17T13:43:11.115Z,1005.17
2017-03-17T13:44:21.712Z,1005.17
2017-03-17T13:45:32.102Z,1005.21
2017-03-17T13:46:42.141Z,1005.15
2017-03-17T13:47:52.178Z,1005.13
2017-03-17T13:49:02.507Z,1005.13
2017-03-17T13:50:13.163Z,1005.15
2017-03-17T13:51:23.173Z,1005.11
2017-03-17T13:52:33.547Z,1005.09
2017-03-17T13:53:43.941Z,1005.11
2017-03-17T13:54:54.364Z,1005.13
2017-03-17T13:56:04.978Z,1005.14
2017-03-17T13:57:15.010Z,1005.14
2017-03-17T13:58:25.371Z,1005.13
2017-03-17T13:59:35.779Z,1005.14
2017-03-17T14:00:46.143Z,1005.19
2017-03-17T14:01:56.452Z,1005.15
2017-03-17T14:03:06.829Z,1005.22
2017-03-17T14:04:17.433Z,1005.24
2017-03-17T14:05:27.787Z,1005.28
2017-03-17T14:06:38.132Z,1005.27
2017-03-17T14:07:48.743Z,1005.29
2017-03-17T14:08:59.078Z,1005.27
2017-03-17T14:10:09.391Z,1005.25
2017-03-17T14:11:19.750Z,1005.34
2017-03-17T14:12:30.076Z,1005.26
2017-03-17T14:13:40.380Z,1005.28
2017-03-17T14:14:50.697Z,1005.31